sensor_id;sensor_type;location;lat;lon;timestamp;temperature;humidity
2030;DHT22;1020;48.854;8.830;2023-07-13T00:01:44;18.60;1.00
2030;DHT22;1020;48.854;8.830;2023-07-13T00:04:11;18.50;1.00
2030;DHT22;1020;48.854;8.830;2023-07-13T00:06:38;18.50;1.00
2030;DHT22;1020;48.854;8.830;2023-07-13T00:09:05;18.50;1.00
2030;DHT22;1020;48.854;8.830;2023-07-13T00:11:32;18.40;1.00
2030;DHT22;1020;48.854;8.830;2023-07-13T00:14:00;18.40;1.00
2030;DHT22;1020;48.854;8.830;2023-07-13T00:16:27;18.30;1.00
2030;DHT22;1020;48.854;8.830;2023-07-13T00:18:53;18.30;1.00
2030;DHT22;1020;48.854;8.830;2023-07-13T00:21:20;18.20;1.00
2030;DHT22;1020;48.854;8.830;2023-07-13T00:23:48;18.20;1.00
2030;DHT22;1020;48.854;8.830;2023-07-13T00:26:15;18.10;1.00
2030;DHT22;1020;48.854;8.830;2023-07-13T00:28:42;18.10;1.00
2030;DHT22;1020;48.854;8.830;2023-07-13T00:31:12;18.10;1.00
2030;DHT22;1020;48.854;8.830;2023-07-13T00:33:40;18.10;1.00
2030;DHT22;1020;48.854;8.830;2023-07-13T00:36:08;18.10;1.00
2030;DHT22;1020;48.854;8.830;2023-07-13T00:38:36;18.10;1.00
2030;DHT22;1020;48.854;8.830;2023-07-13T00:41:03;18.00;1.00
2030;DHT22;1020;48.854;8.830;2023-07-13T00:43:31;18.00;1.00
2030;DHT22;1020;48.854;8.830;2023-07-13T00:46:20;18.00;1.00
2030;DHT22;1020;48.854;8.830;2023-07-13T00:48:49;18.00;1.00
2030;DHT22;1020;48.854;8.830;2023-07-13T00:51:20;17.90;1.00
2030;DHT22;1020;48.854;8.830;2023-07-13T00:53:48;17.80;1.00
2030;DHT22;1020;48.854;8.830;2023-07-13T00:56:16;17.80;1.00
2030;DHT22;1020;48.854;8.830;2023-07-13T00:58:42;17.70;1.00
2030;DHT22;1020;48.854;8.830;2023-07-13T01:01:09;17.70;1.00
2030;DHT22;1020;48.854;8.830;2023-07-13T01:03:39;17.70;1.00
2030;DHT22;1020;48.854;8.830;2023-07-13T01:06:07;17.70;1.00
2030;DHT22;1020;48.854;8.830;2023-07-13T01:08:34;17.60;1.00
2030;DHT22;1020;48.854;8.830;2023-07-13T01:11:01;17.60;1.00
2030;DHT22;1020;48.854;8.830;2023-07-13T01:13:27;17.60;1.00
2030;DHT22;1020;48.854;8.830;2023-07-13T01:15:56;17.60;1.00
2030;DHT22;1020;48.854;8.830;2023-07-13T01:18:27;17.50;1.00
2030;DHT22;1020;48.854;8.830;2023-07-13T01:20:56;17.50;1.00
2030;DHT22;1020;48.854;8.830;2023-07-13T01:23:24;17.40;1.00
2030;DHT22;1020;48.854;8.830;2023-07-13T01:25:52;17.40;1.00
2030;DHT22;1020;48.854;8.830;2023-07-13T01:28:19;17.40;1.00
2030;DHT22;1020;48.854;8.830;2023-07-13T01:30:46;17.30;1.00
2030;DHT22;1020;48.854;8.830;2023-07-13T01:33:14;17.20;1.00
2030;DHT22;1020;48.854;8.830;2023-07-13T01:35:42;17.20;1.00
2030;DHT22;1020;48.854;8.830;2023-07-13T01:38:11;17.20;2.90
2030;DHT22;1020;48.854;8.830;2023-07-13T01:40:38;17.10;51.00
2030;DHT22;1020;48.854;8.830;2023-07-13T01:43:05;17.00;94.80
2030;DHT22;1020;48.854;8.830;2023-07-13T01:45:32;17.00;99.90
2030;DHT22;1020;48.854;8.830;2023-07-13T01:47:59;17.00;99.90
2030;DHT22;1020;48.854;8.830;2023-07-13T01:50:26;16.90;99.90
2030;DHT22;1020;48.854;8.830;2023-07-13T01:52:53;16.80;99.90
2030;DHT22;1020;48.854;8.830;2023-07-13T01:55:21;16.70;99.90
2030;DHT22;1020;48.854;8.830;2023-07-13T01:57:48;16.60;99.90
2030;DHT22;1020;48.854;8.830;2023-07-13T02:00:16;16.60;99.90
2030;DHT22;1020;48.854;8.830;2023-07-13T02:02:43;16.50;99.90
2030;DHT22;1020;48.854;8.830;2023-07-13T02:05:10;16.40;99.90
2030;DHT22;1020;48.854;8.830;2023-07-13T02:07:37;16.50;99.90
2030;DHT22;1020;48.854;8.830;2023-07-13T02:10:05;16.40;99.90
2030;DHT22;1020;48.854;8.830;2023-07-13T02:12:33;16.40;99.90
2030;DHT22;1020;48.854;8.830;2023-07-13T02:15:00;16.40;99.90
2030;DHT22;1020;48.854;8.830;2023-07-13T02:17:27;16.40;99.90
2030;DHT22;1020;48.854;8.830;2023-07-13T02:19:54;16.30;99.90
2030;DHT22;1020;48.854;8.830;2023-07-13T02:22:21;16.30;99.90
2030;DHT22;1020;48.854;8.830;2023-07-13T02:24:48;16.20;99.90
2030;DHT22;1020;48.854;8.830;2023-07-13T02:27:15;16.10;1.00
2030;DHT22;1020;48.854;8.830;2023-07-13T02:29:43;16.10;1.00
2030;DHT22;1020;48.854;8.830;2023-07-13T02:32:10;16.10;1.00
2030;DHT22;1020;48.854;8.830;2023-07-13T02:34:37;16.10;1.00
2030;DHT22;1020;48.854;8.830;2023-07-13T02:37:04;16.00;1.00
2030;DHT22;1020;48.854;8.830;2023-07-13T02:39:31;16.00;1.00
2030;DHT22;1020;48.854;8.830;2023-07-13T02:41:59;16.00;1.00
2030;DHT22;1020;48.854;8.830;2023-07-13T02:44:26;16.00;1.00
2030;DHT22;1020;48.854;8.830;2023-07-13T02:46:54;16.00;1.00
2030;DHT22;1020;48.854;8.830;2023-07-13T02:49:20;15.90;1.00
2030;DHT22;1020;48.854;8.830;2023-07-13T02:51:47;16.00;1.00
2030;DHT22;1020;48.854;8.830;2023-07-13T02:54:14;15.90;1.00
2030;DHT22;1020;48.854;8.830;2023-07-13T02:56:41;15.90;1.00
2030;DHT22;1020;48.854;8.830;2023-07-13T02:59:09;15.90;1.00
2030;DHT22;1020;48.854;8.830;2023-07-13T03:01:36;16.00;1.00
2030;DHT22;1020;48.854;8.830;2023-07-13T03:04:04;15.90;2.10
2030;DHT22;1020;48.854;8.830;2023-07-13T03:06:34;15.90;42.50
2030;DHT22;1020;48.854;8.830;2023-07-13T03:09:01;15.90;57.30
2030;DHT22;1020;48.854;8.830;2023-07-13T03:11:29;15.80;93.70
2030;DHT22;1020;48.854;8.830;2023-07-13T03:13:56;15.80;99.90
2030;DHT22;1020;48.854;8.830;2023-07-13T03:16:23;15.70;99.90
2030;DHT22;1020;48.854;8.830;2023-07-13T03:18:50;15.70;99.90
2030;DHT22;1020;48.854;8.830;2023-07-13T03:21:18;15.70;99.90
2030;DHT22;1020;48.854;8.830;2023-07-13T03:23:45;15.70;99.90
2030;DHT22;1020;48.854;8.830;2023-07-13T03:26:15;15.70;99.90
2030;DHT22;1020;48.854;8.830;2023-07-13T03:28:42;15.60;99.90
2030;DHT22;1020;48.854;8.830;2023-07-13T03:31:11;15.60;99.90
2030;DHT22;1020;48.854;8.830;2023-07-13T03:33:38;15.60;99.90
2030;DHT22;1020;48.854;8.830;2023-07-13T03:36:05;15.50;99.90
2030;DHT22;1020;48.854;8.830;2023-07-13T03:38:35;15.50;99.90
2030;DHT22;1020;48.854;8.830;2023-07-13T03:41:02;15.50;99.90
2030;DHT22;1020;48.854;8.830;2023-07-13T03:43:28;15.50;99.90
2030;DHT22;1020;48.854;8.830;2023-07-13T03:45:55;15.50;99.90
2030;DHT22;1020;48.854;8.830;2023-07-13T03:48:22;15.50;99.90
2030;DHT22;1020;48.854;8.830;2023-07-13T03:50:49;15.50;1.00
2030;DHT22;1020;48.854;8.830;2023-07-13T03:53:15;15.50;1.00
2030;DHT22;1020;48.854;8.830;2023-07-13T03:55:45;15.50;1.00
2030;DHT22;1020;48.854;8.830;2023-07-13T03:58:27;15.50;1.00
2030;DHT22;1020;48.854;8.830;2023-07-13T04:00:54;15.50;1.00
2030;DHT22;1020;48.854;8.830;2023-07-13T04:03:21;15.60;1.00
2030;DHT22;1020;48.854;8.830;2023-07-13T04:05:48;15.50;1.00
2030;DHT22;1020;48.854;8.830;2023-07-13T04:08:15;15.60;1.00
2030;DHT22;1020;48.854;8.830;2023-07-13T04:10:42;15.50;1.00
2030;DHT22;1020;48.854;8.830;2023-07-13T04:13:10;15.50;99.90
2030;DHT22;1020;48.854;8.830;2023-07-13T04:15:38;15.40;99.90
2030;DHT22;1020;48.854;8.830;2023-07-13T04:18:05;15.40;99.90
2030;DHT22;1020;48.854;8.830;2023-07-13T04:20:32;15.40;99.90
2030;DHT22;1020;48.854;8.830;2023-07-13T04:22:58;15.50;99.90
2030;DHT22;1020;48.854;8.830;2023-07-13T04:25:25;15.50;99.90
2030;DHT22;1020;48.854;8.830;2023-07-13T04:27:52;15.50;99.90
2030;DHT22;1020;48.854;8.830;2023-07-13T04:30:21;15.50;99.90
2030;DHT22;1020;48.854;8.830;2023-07-13T04:32:49;15.60;99.90
2030;DHT22;1020;48.854;8.830;2023-07-13T04:35:17;15.60;99.90
2030;DHT22;1020;48.854;8.830;2023-07-13T04:37:45;15.60;99.90
2030;DHT22;1020;48.854;8.830;2023-07-13T04:40:12;15.60;99.90
2030;DHT22;1020;48.854;8.830;2023-07-13T04:42:39;15.60;1.00
2030;DHT22;1020;48.854;8.830;2023-07-13T04:45:07;15.70;1.00
2030;DHT22;1020;48.854;8.830;2023-07-13T04:47:35;15.70;1.00
2030;DHT22;1020;48.854;8.830;2023-07-13T04:50:02;15.70;1.00
2030;DHT22;1020;48.854;8.830;2023-07-13T04:52:30;15.80;18.90
2030;DHT22;1020;48.854;8.830;2023-07-13T04:54:58;15.90;1.00
2030;DHT22;1020;48.854;8.830;2023-07-13T04:57:25;15.90;99.90
2030;DHT22;1020;48.854;8.830;2023-07-13T04:59:52;16.00;1.00
2030;DHT22;1020;48.854;8.830;2023-07-13T05:02:20;15.80;1.00
2030;DHT22;1020;48.854;8.830;2023-07-13T05:04:48;15.70;67.60
2030;DHT22;1020;48.854;8.830;2023-07-13T05:07:15;15.00;99.90
2030;DHT22;1020;48.854;8.830;2023-07-13T05:09:42;15.80;99.90
2030;DHT22;1020;48.854;8.830;2023-07-13T05:12:09;16.00;1.00
2030;DHT22;1020;48.854;8.830;2023-07-13T05:14:36;16.10;96.10
2030;DHT22;1020;48.854;8.830;2023-07-13T05:17:03;16.30;80.60
2030;DHT22;1020;48.854;8.830;2023-07-13T05:19:58;16.40;1.00
2030;DHT22;1020;48.854;8.830;2023-07-13T05:22:28;16.30;99.90
2030;DHT22;1020;48.854;8.830;2023-07-13T05:24:58;16.50;99.90
2030;DHT22;1020;48.854;8.830;2023-07-13T05:27:43;16.70;99.90
2030;DHT22;1020;48.854;8.830;2023-07-13T05:30:13;16.80;99.90
2030;DHT22;1020;48.854;8.830;2023-07-13T05:32:40;16.80;12.70
2030;DHT22;1020;48.854;8.830;2023-07-13T05:35:08;16.80;1.00
2030;DHT22;1020;48.854;8.830;2023-07-13T05:37:37;16.90;1.00
2030;DHT22;1020;48.854;8.830;2023-07-13T05:40:04;17.10;1.00
2030;DHT22;1020;48.854;8.830;2023-07-13T05:42:31;17.30;1.00
2030;DHT22;1020;48.854;8.830;2023-07-13T05:44:58;17.40;1.00
2030;DHT22;1020;48.854;8.830;2023-07-13T05:47:24;17.60;99.90
2030;DHT22;1020;48.854;8.830;2023-07-13T05:49:51;17.70;99.90
2030;DHT22;1020;48.854;8.830;2023-07-13T05:52:19;17.70;99.90
2030;DHT22;1020;48.854;8.830;2023-07-13T05:54:46;17.80;99.90
2030;DHT22;1020;48.854;8.830;2023-07-13T05:57:12;17.90;99.90
2030;DHT22;1020;48.854;8.830;2023-07-13T05:59:39;18.00;99.90
2030;DHT22;1020;48.854;8.830;2023-07-13T06:02:08;18.00;96.50
2030;DHT22;1020;48.854;8.830;2023-07-13T06:04:35;19.60;19.40
2030;DHT22;1020;48.854;8.830;2023-07-13T06:07:02;18.30;1.00
2030;DHT22;1020;48.854;8.830;2023-07-13T06:09:30;18.30;1.00
2030;DHT22;1020;48.854;8.830;2023-07-13T06:11:57;18.30;1.00
2030;DHT22;1020;48.854;8.830;2023-07-13T06:14:23;18.40;1.00
2030;DHT22;1020;48.854;8.830;2023-07-13T06:16:50;18.30;1.00
2030;DHT22;1020;48.854;8.830;2023-07-13T06:19:17;18.40;1.00
2030;DHT22;1020;48.854;8.830;2023-07-13T06:21:43;18.60;1.00
2030;DHT22;1020;48.854;8.830;2023-07-13T06:24:10;18.70;1.00
2030;DHT22;1020;48.854;8.830;2023-07-13T06:26:38;18.50;1.00
2030;DHT22;1020;48.854;8.830;2023-07-13T06:29:05;18.60;1.00
2030;DHT22;1020;48.854;8.830;2023-07-13T06:31:32;18.80;1.00
2030;DHT22;1020;48.854;8.830;2023-07-13T06:33:58;19.00;1.00
2030;DHT22;1020;48.854;8.830;2023-07-13T06:36:25;19.00;1.00
2030;DHT22;1020;48.854;8.830;2023-07-13T06:38:52;19.00;1.00
2030;DHT22;1020;48.854;8.830;2023-07-13T06:41:18;19.20;1.00
2030;DHT22;1020;48.854;8.830;2023-07-13T06:43:47;19.50;1.00
2030;DHT22;1020;48.854;8.830;2023-07-13T06:46:13;19.70;1.00
2030;DHT22;1020;48.854;8.830;2023-07-13T06:48:40;19.60;1.00
2030;DHT22;1020;48.854;8.830;2023-07-13T06:51:08;19.70;1.00
2030;DHT22;1020;48.854;8.830;2023-07-13T06:53:35;19.70;1.00
2030;DHT22;1020;48.854;8.830;2023-07-13T06:56:01;19.70;1.00
2030;DHT22;1020;48.854;8.830;2023-07-13T06:58:28;19.70;1.00
2030;DHT22;1020;48.854;8.830;2023-07-13T07:00:56;19.80;1.00
2030;DHT22;1020;48.854;8.830;2023-07-13T07:03:23;19.90;1.00
2030;DHT22;1020;48.854;8.830;2023-07-13T07:05:50;20.20;1.00
2030;DHT22;1020;48.854;8.830;2023-07-13T07:08:17;20.10;1.00
2030;DHT22;1020;48.854;8.830;2023-07-13T07:10:43;20.30;1.00
2030;DHT22;1020;48.854;8.830;2023-07-13T07:13:11;20.60;1.00
2030;DHT22;1020;48.854;8.830;2023-07-13T07:15:37;20.80;99.90
2030;DHT22;1020;48.854;8.830;2023-07-13T07:18:05;20.70;99.90
2030;DHT22;1020;48.854;8.830;2023-07-13T07:20:32;20.90;99.90
2030;DHT22;1020;48.854;8.830;2023-07-13T07:22:59;20.90;99.90
2030;DHT22;1020;48.854;8.830;2023-07-13T07:25:25;20.90;99.90
2030;DHT22;1020;48.854;8.830;2023-07-13T07:27:52;21.20;99.90
2030;DHT22;1020;48.854;8.830;2023-07-13T07:30:19;21.70;99.90
2030;DHT22;1020;48.854;8.830;2023-07-13T07:32:46;22.20;99.90
2030;DHT22;1020;48.854;8.830;2023-07-13T07:35:14;22.70;99.90
2030;DHT22;1020;48.854;8.830;2023-07-13T07:37:41;22.90;99.90
2030;DHT22;1020;48.854;8.830;2023-07-13T07:40:08;23.90;99.90
2030;DHT22;1020;48.854;8.830;2023-07-13T07:42:35;25.30;99.90
2030;DHT22;1020;48.854;8.830;2023-07-13T07:45:01;26.80;99.90
2030;DHT22;1020;48.854;8.830;2023-07-13T07:47:28;27.50;99.90
2030;DHT22;1020;48.854;8.830;2023-07-13T07:49:55;28.70;99.90
2030;DHT22;1020;48.854;8.830;2023-07-13T07:52:23;28.30;99.90
2030;DHT22;1020;48.854;8.830;2023-07-13T07:54:50;28.20;99.90
2030;DHT22;1020;48.854;8.830;2023-07-13T07:57:17;28.60;99.90
2030;DHT22;1020;48.854;8.830;2023-07-13T07:59:44;28.00;99.90
2030;DHT22;1020;48.854;8.830;2023-07-13T08:02:11;27.90;99.90
2030;DHT22;1020;48.854;8.830;2023-07-13T08:04:38;29.10;99.90
2030;DHT22;1020;48.854;8.830;2023-07-13T08:07:05;29.90;99.90
2030;DHT22;1020;48.854;8.830;2023-07-13T08:09:33;29.40;99.90
2030;DHT22;1020;48.854;8.830;2023-07-13T08:12:00;29.80;99.90
2030;DHT22;1020;48.854;8.830;2023-07-13T08:14:26;30.50;99.90
2030;DHT22;1020;48.854;8.830;2023-07-13T08:16:53;32.00;99.90
2030;DHT22;1020;48.854;8.830;2023-07-13T08:19:20;31.20;99.90
2030;DHT22;1020;48.854;8.830;2023-07-13T08:21:47;30.90;99.90
2030;DHT22;1020;48.854;8.830;2023-07-13T08:24:15;31.90;99.90
2030;DHT22;1020;48.854;8.830;2023-07-13T08:26:45;31.00;99.90
2030;DHT22;1020;48.854;8.830;2023-07-13T08:29:12;31.70;99.90
2030;DHT22;1020;48.854;8.830;2023-07-13T08:31:39;31.30;99.90
2030;DHT22;1020;48.854;8.830;2023-07-13T08:34:05;30.80;99.90
2030;DHT22;1020;48.854;8.830;2023-07-13T08:36:32;30.30;99.90
2030;DHT22;1020;48.854;8.830;2023-07-13T08:38:59;31.10;99.90
2030;DHT22;1020;48.854;8.830;2023-07-13T08:41:26;30.50;99.90
2030;DHT22;1020;48.854;8.830;2023-07-13T08:43:57;29.50;99.90
2030;DHT22;1020;48.854;8.830;2023-07-13T08:46:28;30.30;99.90
2030;DHT22;1020;48.854;8.830;2023-07-13T08:48:58;31.10;99.90
2030;DHT22;1020;48.854;8.830;2023-07-13T08:51:37;31.80;99.90
2030;DHT22;1020;48.854;8.830;2023-07-13T08:54:12;31.60;99.90
2030;DHT22;1020;48.854;8.830;2023-07-13T08:56:43;32.30;99.90
2030;DHT22;1020;48.854;8.830;2023-07-13T08:59:14;30.90;99.90
2030;DHT22;1020;48.854;8.830;2023-07-13T09:01:55;30.70;99.90
2030;DHT22;1020;48.854;8.830;2023-07-13T09:04:28;30.10;99.90
2030;DHT22;1020;48.854;8.830;2023-07-13T09:07:03;30.20;99.90
2030;DHT22;1020;48.854;8.830;2023-07-13T09:09:40;30.90;99.90
2030;DHT22;1020;48.854;8.830;2023-07-13T09:12:14;30.40;99.90
2030;DHT22;1020;48.854;8.830;2023-07-13T09:14:45;30.90;99.90
2030;DHT22;1020;48.854;8.830;2023-07-13T09:17:18;30.20;99.90
2030;DHT22;1020;48.854;8.830;2023-07-13T09:19:48;29.00;99.90
2030;DHT22;1020;48.854;8.830;2023-07-13T09:22:20;30.60;99.90
2030;DHT22;1020;48.854;8.830;2023-07-13T09:24:54;29.40;99.90
2030;DHT22;1020;48.854;8.830;2023-07-13T09:27:28;29.50;99.90
2030;DHT22;1020;48.854;8.830;2023-07-13T09:30:04;29.00;99.90
2030;DHT22;1020;48.854;8.830;2023-07-13T09:32:38;28.70;99.90
2030;DHT22;1020;48.854;8.830;2023-07-13T09:35:11;27.80;99.90
2030;DHT22;1020;48.854;8.830;2023-07-13T09:37:38;28.70;99.90
2030;DHT22;1020;48.854;8.830;2023-07-13T09:40:11;29.80;99.90
2030;DHT22;1020;48.854;8.830;2023-07-13T09:42:40;29.70;99.90
2030;DHT22;1020;48.854;8.830;2023-07-13T09:45:09;28.40;99.90
2030;DHT22;1020;48.854;8.830;2023-07-13T09:47:39;28.50;99.90
2030;DHT22;1020;48.854;8.830;2023-07-13T09:50:10;28.90;99.90
2030;DHT22;1020;48.854;8.830;2023-07-13T09:52:43;29.50;99.90
2030;DHT22;1020;48.854;8.830;2023-07-13T09:55:30;29.70;99.90
2030;DHT22;1020;48.854;8.830;2023-07-13T09:57:57;30.10;99.90
2030;DHT22;1020;48.854;8.830;2023-07-13T10:00:28;29.80;99.90
2030;DHT22;1020;48.854;8.830;2023-07-13T10:02:59;30.10;99.90
2030;DHT22;1020;48.854;8.830;2023-07-13T10:05:26;31.60;99.90
2030;DHT22;1020;48.854;8.830;2023-07-13T10:07:56;30.70;99.90
2030;DHT22;1020;48.854;8.830;2023-07-13T10:10:23;31.20;99.90
2030;DHT22;1020;48.854;8.830;2023-07-13T10:12:50;30.30;99.90
2030;DHT22;1020;48.854;8.830;2023-07-13T10:15:19;30.00;99.90
2030;DHT22;1020;48.854;8.830;2023-07-13T10:17:49;30.30;99.90
2030;DHT22;1020;48.854;8.830;2023-07-13T10:20:17;30.40;99.90
2030;DHT22;1020;48.854;8.830;2023-07-13T10:22:47;30.30;99.90
2030;DHT22;1020;48.854;8.830;2023-07-13T10:25:21;30.70;99.90
2030;DHT22;1020;48.854;8.830;2023-07-13T10:27:50;31.40;99.90
2030;DHT22;1020;48.854;8.830;2023-07-13T10:30:21;31.20;99.90
2030;DHT22;1020;48.854;8.830;2023-07-13T10:32:52;30.50;99.90
2030;DHT22;1020;48.854;8.830;2023-07-13T10:35:20;29.80;99.90
2030;DHT22;1020;48.854;8.830;2023-07-13T10:37:52;29.00;99.90
2030;DHT22;1020;48.854;8.830;2023-07-13T10:40:25;28.90;99.90
2030;DHT22;1020;48.854;8.830;2023-07-13T10:42:57;29.10;99.90
2030;DHT22;1020;48.854;8.830;2023-07-13T10:45:27;29.50;99.90
2030;DHT22;1020;48.854;8.830;2023-07-13T10:47:57;29.90;99.90
2030;DHT22;1020;48.854;8.830;2023-07-13T10:50:25;29.80;99.90
2030;DHT22;1020;48.854;8.830;2023-07-13T10:52:54;29.70;99.90
2030;DHT22;1020;48.854;8.830;2023-07-13T10:55:37;29.80;99.90
2030;DHT22;1020;48.854;8.830;2023-07-13T10:58:13;30.20;99.90
2030;DHT22;1020;48.854;8.830;2023-07-13T11:00:47;30.30;99.90
2030;DHT22;1020;48.854;8.830;2023-07-13T11:03:19;30.90;99.90
2030;DHT22;1020;48.854;8.830;2023-07-13T11:05:48;30.50;99.90
2030;DHT22;1020;48.854;8.830;2023-07-13T11:08:19;30.60;99.90
2030;DHT22;1020;48.854;8.830;2023-07-13T11:10:51;30.10;99.90
2030;DHT22;1020;48.854;8.830;2023-07-13T11:13:39;28.10;99.90
2030;DHT22;1020;48.854;8.830;2023-07-13T11:16:43;28.50;99.90
2030;DHT22;1020;48.854;8.830;2023-07-13T11:19:42;29.00;99.90
2030;DHT22;1020;48.854;8.830;2023-07-13T11:22:24;29.60;99.90
2030;DHT22;1020;48.854;8.830;2023-07-13T11:24:56;29.50;99.90
2030;DHT22;1020;48.854;8.830;2023-07-13T11:27:34;29.60;99.90
2030;DHT22;1020;48.854;8.830;2023-07-13T11:30:32;29.20;99.90
2030;DHT22;1020;48.854;8.830;2023-07-13T11:33:12;27.90;99.90
2030;DHT22;1020;48.854;8.830;2023-07-13T11:35:46;28.10;99.90
2030;DHT22;1020;48.854;8.830;2023-07-13T11:38:18;28.90;99.90
2030;DHT22;1020;48.854;8.830;2023-07-13T11:40:46;29.60;99.90
2030;DHT22;1020;48.854;8.830;2023-07-13T11:43:14;29.60;99.90
2030;DHT22;1020;48.854;8.830;2023-07-13T11:45:42;29.30;99.90
2030;DHT22;1020;48.854;8.830;2023-07-13T11:48:19;29.10;99.90
2030;DHT22;1020;48.854;8.830;2023-07-13T11:50:52;28.50;99.90
2030;DHT22;1020;48.854;8.830;2023-07-13T11:53:19;29.70;99.90
2030;DHT22;1020;48.854;8.830;2023-07-13T11:55:46;30.50;99.90
2030;DHT22;1020;48.854;8.830;2023-07-13T11:58:19;29.80;99.90
2030;DHT22;1020;48.854;8.830;2023-07-13T12:00:47;29.40;99.90
2030;DHT22;1020;48.854;8.830;2023-07-13T12:03:18;29.60;99.90
2030;DHT22;1020;48.854;8.830;2023-07-13T12:05:57;29.20;99.90
2030;DHT22;1020;48.854;8.830;2023-07-13T12:08:25;30.20;99.90
2030;DHT22;1020;48.854;8.830;2023-07-13T12:10:58;30.20;99.90
2030;DHT22;1020;48.854;8.830;2023-07-13T12:13:26;30.40;99.90
2030;DHT22;1020;48.854;8.830;2023-07-13T12:15:53;30.40;99.90
2030;DHT22;1020;48.854;8.830;2023-07-13T12:18:22;31.00;99.90
2030;DHT22;1020;48.854;8.830;2023-07-13T12:20:50;30.10;99.90
2030;DHT22;1020;48.854;8.830;2023-07-13T12:23:24;29.80;99.90
2030;DHT22;1020;48.854;8.830;2023-07-13T12:25:51;29.90;99.90
2030;DHT22;1020;48.854;8.830;2023-07-13T12:28:23;29.60;99.90
2030;DHT22;1020;48.854;8.830;2023-07-13T12:30:49;29.50;99.90
2030;DHT22;1020;48.854;8.830;2023-07-13T12:33:27;29.00;99.90
2030;DHT22;1020;48.854;8.830;2023-07-13T12:35:54;28.80;99.90
2030;DHT22;1020;48.854;8.830;2023-07-13T12:38:24;29.40;99.90
2030;DHT22;1020;48.854;8.830;2023-07-13T12:40:52;29.10;99.90
2030;DHT22;1020;48.854;8.830;2023-07-13T12:43:20;29.80;99.90
2030;DHT22;1020;48.854;8.830;2023-07-13T12:45:59;29.30;99.90
2030;DHT22;1020;48.854;8.830;2023-07-13T12:48:26;29.60;99.90
2030;DHT22;1020;48.854;8.830;2023-07-13T12:50:54;30.00;99.90
2030;DHT22;1020;48.854;8.830;2023-07-13T12:53:29;29.80;99.90
2030;DHT22;1020;48.854;8.830;2023-07-13T12:55:59;30.20;99.90
2030;DHT22;1020;48.854;8.830;2023-07-13T12:58:30;29.30;99.90
2030;DHT22;1020;48.854;8.830;2023-07-13T13:00:59;29.40;99.90
2030;DHT22;1020;48.854;8.830;2023-07-13T13:03:31;29.20;99.90
2030;DHT22;1020;48.854;8.830;2023-07-13T13:06:00;28.90;99.90
2030;DHT22;1020;48.854;8.830;2023-07-13T13:08:30;28.60;99.90
2030;DHT22;1020;48.854;8.830;2023-07-13T13:10:57;28.70;99.90
2030;DHT22;1020;48.854;8.830;2023-07-13T13:13:24;28.40;99.90
2030;DHT22;1020;48.854;8.830;2023-07-13T13:15:51;28.90;99.90
2030;DHT22;1020;48.854;8.830;2023-07-13T13:18:18;29.10;99.90
2030;DHT22;1020;48.854;8.830;2023-07-13T13:20:46;29.70;99.90
2030;DHT22;1020;48.854;8.830;2023-07-13T13:23:14;30.00;99.90
2030;DHT22;1020;48.854;8.830;2023-07-13T13:25:46;29.20;99.90
2030;DHT22;1020;48.854;8.830;2023-07-13T13:28:14;29.70;99.90
2030;DHT22;1020;48.854;8.830;2023-07-13T13:30:42;29.40;99.90
2030;DHT22;1020;48.854;8.830;2023-07-13T13:33:11;28.80;99.90
2030;DHT22;1020;48.854;8.830;2023-07-13T13:35:39;29.00;99.90
2030;DHT22;1020;48.854;8.830;2023-07-13T13:38:11;28.80;99.90
2030;DHT22;1020;48.854;8.830;2023-07-13T13:40:38;29.10;99.90
2030;DHT22;1020;48.854;8.830;2023-07-13T13:43:14;28.60;99.90
2030;DHT22;1020;48.854;8.830;2023-07-13T13:45:42;28.70;99.90
2030;DHT22;1020;48.854;8.830;2023-07-13T13:48:14;29.20;99.90
2030;DHT22;1020;48.854;8.830;2023-07-13T13:50:41;29.60;99.90
2030;DHT22;1020;48.854;8.830;2023-07-13T13:53:10;30.20;99.90
2030;DHT22;1020;48.854;8.830;2023-07-13T13:55:38;29.90;99.90
2030;DHT22;1020;48.854;8.830;2023-07-13T13:58:08;29.30;99.90
2030;DHT22;1020;48.854;8.830;2023-07-13T14:00:36;29.80;99.90
2030;DHT22;1020;48.854;8.830;2023-07-13T14:03:03;30.30;99.90
2030;DHT22;1020;48.854;8.830;2023-07-13T14:05:32;30.10;99.90
2030;DHT22;1020;48.854;8.830;2023-07-13T14:07:59;29.60;99.90
2030;DHT22;1020;48.854;8.830;2023-07-13T14:10:26;29.10;99.90
2030;DHT22;1020;48.854;8.830;2023-07-13T14:12:54;29.50;99.90
2030;DHT22;1020;48.854;8.830;2023-07-13T14:15:26;29.10;99.90
2030;DHT22;1020;48.854;8.830;2023-07-13T14:17:53;29.20;99.90
2030;DHT22;1020;48.854;8.830;2023-07-13T14:20:22;29.00;99.90
2030;DHT22;1020;48.854;8.830;2023-07-13T14:22:50;29.30;99.90
2030;DHT22;1020;48.854;8.830;2023-07-13T14:25:18;29.40;99.90
2030;DHT22;1020;48.854;8.830;2023-07-13T14:27:48;28.90;99.90
2030;DHT22;1020;48.854;8.830;2023-07-13T14:30:16;28.70;99.90
2030;DHT22;1020;48.854;8.830;2023-07-13T14:32:44;28.10;99.90
2030;DHT22;1020;48.854;8.830;2023-07-13T14:35:12;28.30;99.90
2030;DHT22;1020;48.854;8.830;2023-07-13T14:37:39;28.20;99.90
2030;DHT22;1020;48.854;8.830;2023-07-13T14:40:13;28.80;99.90
2030;DHT22;1020;48.854;8.830;2023-07-13T14:42:40;28.50;99.90
2030;DHT22;1020;48.854;8.830;2023-07-13T14:45:12;28.50;99.90
2030;DHT22;1020;48.854;8.830;2023-07-13T14:47:39;28.50;99.90
2030;DHT22;1020;48.854;8.830;2023-07-13T14:50:14;28.10;99.90
2030;DHT22;1020;48.854;8.830;2023-07-13T14:52:41;27.50;99.90
2030;DHT22;1020;48.854;8.830;2023-07-13T14:55:11;27.60;99.90
2030;DHT22;1020;48.854;8.830;2023-07-13T14:57:38;27.80;99.90
2030;DHT22;1020;48.854;8.830;2023-07-13T15:00:09;28.00;99.90
2030;DHT22;1020;48.854;8.830;2023-07-13T15:02:39;28.10;99.90
2030;DHT22;1020;48.854;8.830;2023-07-13T15:05:15;27.60;99.90
2030;DHT22;1020;48.854;8.830;2023-07-13T15:07:42;27.50;99.90
2030;DHT22;1020;48.854;8.830;2023-07-13T15:10:14;27.50;99.90
2030;DHT22;1020;48.854;8.830;2023-07-13T15:12:41;27.40;99.90
2030;DHT22;1020;48.854;8.830;2023-07-13T15:15:08;27.30;99.90
2030;DHT22;1020;48.854;8.830;2023-07-13T15:17:37;27.60;99.90
2030;DHT22;1020;48.854;8.830;2023-07-13T15:20:11;27.60;99.90
2030;DHT22;1020;48.854;8.830;2023-07-13T15:22:44;27.20;99.90
2030;DHT22;1020;48.854;8.830;2023-07-13T15:25:15;27.20;99.90
2030;DHT22;1020;48.854;8.830;2023-07-13T15:27:42;27.30;99.90
2030;DHT22;1020;48.854;8.830;2023-07-13T15:30:10;27.50;99.90
2030;DHT22;1020;48.854;8.830;2023-07-13T15:32:37;27.70;99.90
2030;DHT22;1020;48.854;8.830;2023-07-13T15:35:05;27.50;99.90
2030;DHT22;1020;48.854;8.830;2023-07-13T15:37:32;27.30;99.90
2030;DHT22;1020;48.854;8.830;2023-07-13T15:40:00;27.00;99.90
2030;DHT22;1020;48.854;8.830;2023-07-13T15:42:27;27.10;99.90
2030;DHT22;1020;48.854;8.830;2023-07-13T15:44:54;27.10;99.90
2030;DHT22;1020;48.854;8.830;2023-07-13T15:47:20;27.30;99.90
2030;DHT22;1020;48.854;8.830;2023-07-13T15:49:47;27.60;99.90
2030;DHT22;1020;48.854;8.830;2023-07-13T15:52:18;25.80;99.90
2030;DHT22;1020;48.854;8.830;2023-07-13T15:54:46;27.80;99.90
2030;DHT22;1020;48.854;8.830;2023-07-13T15:57:15;27.80;99.90
2030;DHT22;1020;48.854;8.830;2023-07-13T15:59:42;27.80;99.90
2030;DHT22;1020;48.854;8.830;2023-07-13T16:02:13;28.10;99.90
2030;DHT22;1020;48.854;8.830;2023-07-13T16:04:41;29.70;99.90
2030;DHT22;1020;48.854;8.830;2023-07-13T16:07:09;28.60;99.90
2030;DHT22;1020;48.854;8.830;2023-07-13T16:09:37;28.50;99.90
2030;DHT22;1020;48.854;8.830;2023-07-13T16:12:09;28.30;99.90
2030;DHT22;1020;48.854;8.830;2023-07-13T16:14:38;27.00;99.90
2030;DHT22;1020;48.854;8.830;2023-07-13T16:17:07;27.20;99.90
2030;DHT22;1020;48.854;8.830;2023-07-13T16:19:35;25.90;99.90